createdAt,value
2023-02-26T00:00:52.088Z,3.10
2023-02-26T00:02:56.148Z,2.77
2023-02-26T00:04:58.921Z,2.73
2023-02-26T00:07:01.599Z,2.20
2023-02-26T00:09:04.753Z,2.87
2023-02-26T00:11:08.259Z,2.50
2023-02-26T00:13:11.352Z,2.23
2023-02-26T00:15:17.572Z,2.80
2023-02-26T00:17:33.403Z,3.50
2023-02-26T00:19:37.906Z,2.40
2023-02-26T00:21:41.183Z,2.73
2023-02-26T00:23:44.161Z,2.70
2023-02-26T00:25:47.039Z,2.47
2023-02-26T00:27:50.185Z,2.47
2023-02-26T00:29:53.400Z,2.57
2023-02-26T00:31:56.632Z,2.50
2023-02-26T00:33:59.980Z,2.67
2023-02-26T00:36:09.982Z,2.43
2023-02-26T00:38:14.569Z,2.57
2023-02-26T00:40:20.656Z,2.73
2023-02-26T00:42:23.823Z,2.23
2023-02-26T00:44:26.970Z,2.40
2023-02-26T00:46:34.579Z,2.53
2023-02-26T00:48:45.368Z,3.30
2023-02-26T00:50:49.966Z,2.77
2023-02-26T00:53:01.883Z,2.60
2023-02-26T00:55:04.893Z,2.87
2023-02-26T00:57:07.613Z,2.67
2023-02-26T00:59:10.300Z,2.80
2023-02-26T01:01:13.065Z,2.90
2023-02-26T01:03:16.129Z,3.27
2023-02-26T01:05:19.388Z,2.90
2023-02-26T01:07:24.263Z,3.00
2023-02-26T01:09:29.778Z,2.60
2023-02-26T01:11:32.899Z,2.40
2023-02-26T01:13:36.038Z,2.43
2023-02-26T01:15:39.362Z,2.53
2023-02-26T01:17:46.428Z,2.50
2023-02-26T01:19:50.893Z,2.87
2023-02-26T01:21:57.086Z,2.53
2023-02-26T01:23:59.845Z,2.80
2023-02-26T01:26:06.469Z,2.37
2023-02-26T01:28:09.788Z,2.47
2023-02-26T01:30:13.348Z,2.60
2023-02-26T01:32:18.456Z,2.63
2023-02-26T01:34:23.855Z,2.77
2023-02-26T01:36:28.427Z,2.40
2023-02-26T01:38:33.370Z,2.63
2023-02-26T01:40:46.511Z,1.97
2023-02-26T01:42:52.533Z,2.20
2023-02-26T01:44:58.062Z,2.37
2023-02-26T01:47:07.342Z,2.67
2023-02-26T01:49:12.169Z,2.30
2023-02-26T01:51:14.887Z,2.83
2023-02-26T01:53:19.097Z,3.23
2023-02-26T01:55:23.128Z,2.60
2023-02-26T01:57:25.832Z,2.63
2023-02-26T01:59:29.862Z,2.63
2023-02-26T02:01:32.928Z,3.00
2023-02-26T02:03:38.068Z,3.03
2023-02-26T02:05:43.080Z,2.30
2023-02-26T02:07:45.789Z,2.67
2023-02-26T02:09:48.482Z,2.20
2023-02-26T02:12:05.372Z,2.90
2023-02-26T02:14:13.033Z,2.30
2023-02-26T02:16:24.396Z,2.23
2023-02-26T02:18:32.805Z,2.50
2023-02-26T02:21:20.029Z,2.47
2023-02-26T02:23:25.563Z,2.33
2023-02-26T02:25:41.476Z,2.57
2023-02-26T02:27:47.443Z,2.73
2023-02-26T02:30:16.967Z,2.67
2023-02-26T02:32:22.484Z,2.30
2023-02-26T02:34:27.291Z,2.33
2023-02-26T02:36:32.634Z,2.53
2023-02-26T02:38:36.039Z,2.53
2023-02-26T02:40:41.122Z,2.50
2023-02-26T02:42:45.496Z,2.47
2023-02-26T02:44:49.200Z,2.47
2023-02-26T02:46:52.888Z,2.40
2023-02-26T02:48:59.330Z,2.27
2023-02-26T02:51:03.818Z,2.63
2023-02-26T02:53:09.033Z,2.00
2023-02-26T02:55:14.195Z,2.70
2023-02-26T02:57:18.775Z,2.23
2023-02-26T02:59:23.139Z,2.77
2023-02-26T03:01:27.056Z,2.13
2023-02-26T03:03:32.520Z,2.60
2023-02-26T03:05:36.624Z,1.90
2023-02-26T03:07:43.175Z,2.77
2023-02-26T03:09:45.876Z,2.30
2023-02-26T03:11:48.582Z,3.10
2023-02-26T03:13:51.600Z,2.63
2023-02-26T03:16:03.974Z,2.60
2023-02-26T03:18:13.199Z,2.43
2023-02-26T03:20:20.154Z,2.53
2023-02-26T03:22:28.839Z,2.40
2023-02-26T03:24:34.448Z,2.60
2023-02-26T03:26:40.775Z,2.40
2023-02-26T03:28:47.291Z,2.27
2023-02-26T03:30:52.583Z,2.10
2023-02-26T03:33:00.044Z,2.47
2023-02-26T03:35:04.692Z,2.60
2023-02-26T03:37:08.590Z,2.13
2023-02-26T03:39:13.911Z,2.60
2023-02-26T03:41:18.712Z,2.57
2023-02-26T03:43:23.272Z,2.37
2023-02-26T03:45:27.793Z,2.50
2023-02-26T03:47:30.934Z,2.50
2023-02-26T03:49:35.345Z,2.43
2023-02-26T03:51:38.188Z,2.47
2023-02-26T03:53:43.851Z,2.57
2023-02-26T03:55:50.454Z,2.10
2023-02-26T03:57:53.483Z,2.20
2023-02-26T03:59:56.153Z,1.83
2023-02-26T04:02:00.465Z,2.03
2023-02-26T04:04:04.706Z,2.00
2023-02-26T04:06:07.846Z,2.20
2023-02-26T04:08:10.752Z,2.13
2023-02-26T04:10:15.179Z,2.00
2023-02-26T04:12:23.118Z,2.20
2023-02-26T04:14:25.808Z,2.60
2023-02-26T04:16:28.846Z,2.33
2023-02-26T04:18:31.644Z,2.30
2023-02-26T04:20:34.426Z,2.23
2023-02-26T04:22:37.281Z,1.80
2023-02-26T04:24:39.959Z,2.10
2023-02-26T04:26:42.648Z,2.20
2023-02-26T04:28:46.657Z,2.50
2023-02-26T04:30:49.477Z,2.73
2023-02-26T04:32:52.253Z,2.63
2023-02-26T04:34:54.954Z,2.93
2023-02-26T04:36:57.641Z,2.00
2023-02-26T04:39:00.371Z,2.17
2023-02-26T04:41:03.101Z,2.00
2023-02-26T04:43:05.849Z,2.20
2023-02-26T04:45:10.504Z,2.60
2023-02-26T04:47:13.217Z,2.07
2023-02-26T04:49:15.963Z,2.70
2023-02-26T04:51:18.990Z,2.20
2023-02-26T04:53:21.695Z,2.33
2023-02-26T04:55:24.398Z,2.40
2023-02-26T04:57:27.159Z,2.43
2023-02-26T04:59:29.878Z,1.80
2023-02-26T05:01:33.956Z,2.50
2023-02-26T05:03:36.705Z,2.00
2023-02-26T05:05:39.413Z,2.07
2023-02-26T05:07:42.132Z,2.00
2023-02-26T05:09:44.876Z,2.07
2023-02-26T05:11:47.995Z,2.23
2023-02-26T05:13:50.706Z,2.23
2023-02-26T05:15:54.473Z,2.23
2023-02-26T05:17:58.556Z,2.10
2023-02-26T05:20:01.244Z,2.40
2023-02-26T05:22:03.968Z,2.20
2023-02-26T05:24:07.168Z,2.50
2023-02-26T05:26:09.876Z,2.37
2023-02-26T05:28:12.588Z,2.20
2023-02-26T05:30:16.480Z,2.70
2023-02-26T05:32:19.261Z,2.10
2023-02-26T05:34:23.345Z,2.03
2023-02-26T05:36:26.304Z,2.60
2023-02-26T05:38:29.245Z,2.40
2023-02-26T05:40:31.971Z,1.80
2023-02-26T05:42:34.696Z,2.17
2023-02-26T05:44:37.422Z,2.43
2023-02-26T05:46:40.225Z,1.80
2023-02-26T05:48:45.618Z,2.57
2023-02-26T05:50:50.070Z,2.43
2023-02-26T05:52:52.788Z,2.80
2023-02-26T05:54:56.080Z,2.50
2023-02-26T05:56:59.108Z,1.87
2023-02-26T05:59:01.807Z,2.23
2023-02-26T06:01:04.535Z,2.60
2023-02-26T06:03:07.307Z,2.00
2023-02-26T06:05:10.457Z,2.70
2023-02-26T06:07:14.540Z,2.30
2023-02-26T06:09:17.441Z,2.00
2023-02-26T06:11:20.210Z,2.33
2023-02-26T06:13:22.933Z,2.53
2023-02-26T06:15:25.718Z,2.43
2023-02-26T06:17:28.626Z,2.50
2023-02-26T06:19:31.357Z,2.57
2023-02-26T06:21:34.333Z,2.70
2023-02-26T06:23:38.392Z,3.13
2023-02-26T06:25:41.099Z,2.60
2023-02-26T06:27:43.832Z,2.47
2023-02-26T06:29:46.530Z,3.33
2023-02-26T06:31:49.440Z,4.13
2023-02-26T06:33:52.277Z,2.57
2023-02-26T06:35:55.980Z,2.60
2023-02-26T06:37:58.809Z,4.47
2023-02-26T06:40:03.939Z,2.57
2023-02-26T06:42:06.741Z,3.33
2023-02-26T06:44:10.141Z,2.90
2023-02-26T06:46:12.945Z,2.57
2023-02-26T06:48:15.701Z,2.60
2023-02-26T06:50:18.616Z,2.20
2023-02-26T06:52:21.370Z,2.50
2023-02-26T06:54:24.107Z,4.07
2023-02-26T06:56:28.534Z,2.33
2023-02-26T06:58:31.451Z,2.40
2023-02-26T07:00:34.199Z,2.23
2023-02-26T07:02:37.038Z,2.60
2023-02-26T07:04:39.981Z,2.60
2023-02-26T07:06:42.943Z,2.67
2023-02-26T07:08:45.870Z,2.80
2023-02-26T07:10:49.470Z,1.87
2023-02-26T07:12:53.641Z,3.37
2023-02-26T07:14:56.345Z,2.27
2023-02-26T07:16:59.199Z,2.40
2023-02-26T07:19:01.976Z,2.83
2023-02-26T07:21:05.079Z,8.57
2023-02-26T07:23:08.075Z,3.73
2023-02-26T07:25:12.290Z,3.80
2023-02-26T07:27:15.005Z,3.13
2023-02-26T07:29:19.043Z,3.60
2023-02-26T07:31:21.826Z,2.20
2023-02-26T07:33:25.223Z,4.73
2023-02-26T07:35:28.023Z,2.47
2023-02-26T07:37:30.832Z,2.57
2023-02-26T07:39:33.602Z,2.40
2023-02-26T07:41:36.334Z,4.30
2023-02-26T07:43:39.056Z,2.23
2023-02-26T07:45:43.110Z,2.97
2023-02-26T07:47:45.847Z,2.20
2023-02-26T07:49:48.556Z,2.67
2023-02-26T07:51:51.292Z,1.93
2023-02-26T07:53:54.031Z,2.23
2023-02-26T07:55:56.751Z,1.93
2023-02-26T07:57:59.500Z,2.27
2023-02-26T08:00:02.208Z,2.20
2023-02-26T08:02:06.619Z,1.77
2023-02-26T08:04:09.461Z,2.53
2023-02-26T08:06:12.194Z,2.60
2023-02-26T08:08:15.318Z,2.30
2023-02-26T08:10:18.153Z,2.43
2023-02-26T08:12:20.851Z,2.00
2023-02-26T08:14:23.729Z,2.30
2023-02-26T08:16:26.808Z,2.10
2023-02-26T08:18:31.049Z,2.00
2023-02-26T08:20:33.751Z,2.53
2023-02-26T08:22:36.489Z,2.03
2023-02-26T08:24:39.290Z,2.20
2023-02-26T08:26:42.120Z,2.03
2023-02-26T08:28:46.303Z,2.30
2023-02-26T08:30:49.092Z,2.17
2023-02-26T08:32:51.875Z,2.23
2023-02-26T08:34:56.397Z,1.93
2023-02-26T08:36:59.131Z,1.70
2023-02-26T08:39:01.904Z,2.50
2023-02-26T08:41:04.812Z,2.20
2023-02-26T08:43:07.559Z,2.20
2023-02-26T08:45:11.137Z,2.27
2023-02-26T08:47:17.139Z,4.30
2023-02-26T08:49:27.273Z,1.93
2023-02-26T08:51:31.325Z,2.10
2023-02-26T08:53:34.042Z,2.00
2023-02-26T08:55:36.767Z,2.07
2023-02-26T08:57:39.484Z,2.30
2023-02-26T08:59:42.327Z,2.47
2023-02-26T09:01:45.238Z,1.90
2023-02-26T09:03:47.987Z,2.00
2023-02-26T09:05:51.879Z,2.33
2023-02-26T09:07:55.970Z,2.07
2023-02-26T09:09:58.679Z,2.53
2023-02-26T09:12:01.404Z,2.03
2023-02-26T09:14:04.211Z,2.20
2023-02-26T09:16:07.778Z,1.90
2023-02-26T09:18:15.278Z,1.90
2023-02-26T09:20:18.212Z,2.30
2023-02-26T09:22:20.940Z,2.00
2023-02-26T09:24:25.248Z,2.37
2023-02-26T09:26:28.182Z,2.33
2023-02-26T09:28:31.122Z,1.97
2023-02-26T09:30:33.911Z,2.20
2023-02-26T09:32:36.690Z,1.87
2023-02-26T09:34:39.686Z,2.30
2023-02-26T09:36:43.808Z,2.00
2023-02-26T09:38:47.833Z,1.50
2023-02-26T09:40:53.657Z,1.80
2023-02-26T09:43:07.485Z,2.20
2023-02-26T09:45:13.243Z,2.10
2023-02-26T09:47:17.927Z,2.50
2023-02-26T09:49:25.940Z,1.90
2023-02-26T09:51:28.637Z,1.90
2023-02-26T09:53:34.095Z,1.77
2023-02-26T09:55:39.925Z,1.70
2023-02-26T09:57:45.427Z,1.53
2023-02-26T09:59:48.158Z,2.37
2023-02-26T10:01:55.588Z,2.00
2023-02-26T10:04:04.464Z,1.90
2023-02-26T10:06:20.431Z,1.67
2023-02-26T10:08:23.145Z,1.80
2023-02-26T10:10:33.058Z,1.60
2023-02-26T10:12:37.343Z,1.83
2023-02-26T10:14:43.524Z,2.20
2023-02-26T10:16:50.055Z,1.53
2023-02-26T10:18:54.058Z,1.97
2023-02-26T10:20:58.971Z,2.13
2023-02-26T10:23:02.865Z,2.23
2023-02-26T10:25:08.085Z,1.67
2023-02-26T10:27:12.995Z,1.50
2023-02-26T10:29:21.466Z,1.97
2023-02-26T10:31:30.486Z,2.00
2023-02-26T10:33:37.442Z,1.80
2023-02-26T10:35:43.372Z,1.50
2023-02-26T10:37:48.880Z,1.47
2023-02-26T10:39:52.849Z,1.57
2023-02-26T10:41:56.078Z,1.70
2023-02-26T10:44:04.482Z,1.50
2023-02-26T10:46:14.235Z,1.30
2023-02-26T10:48:28.479Z,1.70
2023-02-26T10:50:31.317Z,1.40
2023-02-26T10:52:34.783Z,1.57
2023-02-26T10:54:38.484Z,1.67
2023-02-26T10:56:41.250Z,1.70
2023-02-26T10:58:44.413Z,2.00
2023-02-26T11:00:48.125Z,1.80
2023-02-26T11:02:51.945Z,1.50
2023-02-26T11:05:06.877Z,1.80
2023-02-26T11:07:10.554Z,1.27
2023-02-26T11:09:19.261Z,1.43
2023-02-26T11:11:42.639Z,1.40
2023-02-26T11:13:45.375Z,1.67
2023-02-26T11:15:51.326Z,1.30
2023-02-26T11:17:55.819Z,2.10
2023-02-26T11:20:00.930Z,1.50
2023-02-26T11:22:04.267Z,1.90
2023-02-26T11:24:09.306Z,1.40
2023-02-26T11:26:16.508Z,1.70
2023-02-26T11:28:22.170Z,1.53
2023-02-26T11:30:27.214Z,1.40
2023-02-26T11:32:31.640Z,1.97
2023-02-26T11:34:34.526Z,1.17
2023-02-26T11:36:39.860Z,1.57
2023-02-26T11:38:42.962Z,2.00
2023-02-26T11:40:47.868Z,1.50
2023-02-26T11:42:52.639Z,1.50
2023-02-26T11:44:55.363Z,1.80
2023-02-26T11:46:58.773Z,1.90
2023-02-26T11:49:01.882Z,1.60
2023-02-26T11:51:05.296Z,1.67
2023-02-26T11:53:16.921Z,1.50
2023-02-26T11:55:20.869Z,1.57
2023-02-26T11:57:25.653Z,1.80
2023-02-26T11:59:28.385Z,1.80
2023-02-26T12:01:31.193Z,1.50
2023-02-26T12:03:35.341Z,1.73
2023-02-26T12:05:38.079Z,1.60
2023-02-26T12:07:40.779Z,1.40
2023-02-26T12:09:45.167Z,1.50
2023-02-26T12:12:07.511Z,1.80
2023-02-26T12:14:18.792Z,1.57
2023-02-26T12:16:24.750Z,1.73
2023-02-26T12:18:35.314Z,1.70
2023-02-26T12:20:41.570Z,1.50
2023-02-26T12:22:54.807Z,1.83
2023-02-26T12:25:23.120Z,1.93
2023-02-26T12:27:30.856Z,1.63
2023-02-26T12:29:43.993Z,1.30
2023-02-26T12:31:57.334Z,1.30
2023-02-26T12:34:07.175Z,1.63
2023-02-26T12:36:21.662Z,1.90
2023-02-26T12:38:29.622Z,1.80
2023-02-26T12:40:45.613Z,1.57
2023-02-26T12:42:53.000Z,1.23
2023-02-26T12:45:23.443Z,1.60
2023-02-26T12:47:34.388Z,1.60
2023-02-26T12:49:55.472Z,1.63
2023-02-26T12:52:16.062Z,1.40
2023-02-26T12:54:26.489Z,1.70
2023-02-26T12:56:53.872Z,1.50
2023-02-26T12:59:05.865Z,2.00
2023-02-26T13:01:24.155Z,1.47
2023-02-26T13:03:58.789Z,1.60
2023-02-26T13:06:40.277Z,1.50
2023-02-26T13:08:46.689Z,2.00
2023-02-26T13:10:58.043Z,1.67
2023-02-26T13:13:11.159Z,1.90
2023-02-26T13:15:37.060Z,1.83
2023-02-26T13:17:42.357Z,1.77
2023-02-26T13:19:48.300Z,1.40
2023-02-26T13:21:52.794Z,1.37
2023-02-26T13:23:57.679Z,2.10
2023-02-26T13:26:01.627Z,2.03
2023-02-26T13:28:11.163Z,1.53
2023-02-26T13:30:24.991Z,1.80
2023-02-26T13:32:28.253Z,1.90
2023-02-26T13:34:42.548Z,1.30
2023-02-26T13:36:45.251Z,1.63
2023-02-26T13:38:54.325Z,1.90
2023-02-26T13:41:01.899Z,1.80
2023-02-26T13:43:10.337Z,1.83
2023-02-26T13:45:24.603Z,1.50
2023-02-26T13:47:42.480Z,1.70
2023-02-26T13:49:52.278Z,1.60
2023-02-26T13:51:55.398Z,1.73
2023-02-26T13:54:00.205Z,1.83
2023-02-26T13:56:07.571Z,1.43
2023-02-26T13:58:35.233Z,1.50
2023-02-26T14:00:38.486Z,1.50
2023-02-26T14:02:55.305Z,1.60
2023-02-26T14:04:59.469Z,1.10
2023-02-26T14:07:08.227Z,1.50
2023-02-26T14:09:46.788Z,1.53
2023-02-26T14:12:01.204Z,1.60
2023-02-26T14:14:13.157Z,1.10
2023-02-26T14:16:22.157Z,1.50
2023-02-26T14:18:32.377Z,1.27
2023-02-26T14:20:36.099Z,1.20
2023-02-26T14:22:41.746Z,1.40
2023-02-26T14:24:46.316Z,1.10
2023-02-26T14:26:50.483Z,1.30
2023-02-26T14:28:58.230Z,1.43
2023-02-26T14:31:11.101Z,1.00
2023-02-26T14:33:16.747Z,1.20
2023-02-26T14:35:21.160Z,1.30
2023-02-26T14:37:24.705Z,1.20
2023-02-26T14:39:30.705Z,1.50
2023-02-26T14:41:36.238Z,2.70
2023-02-26T14:43:40.655Z,1.30
2023-02-26T14:45:45.832Z,1.30
2023-02-26T14:47:50.046Z,1.07
2023-02-26T14:49:59.365Z,1.13
2023-02-26T14:52:21.772Z,1.40
2023-02-26T14:54:43.594Z,1.40
2023-02-26T14:56:55.113Z,1.30
2023-02-26T14:59:06.603Z,1.63
2023-02-26T15:01:21.403Z,1.63
2023-02-26T15:03:44.259Z,1.20
2023-02-26T15:05:55.796Z,1.20
2023-02-26T15:08:29.564Z,1.47
2023-02-26T15:10:40.091Z,1.43
2023-02-26T15:12:57.121Z,1.30
2023-02-26T15:15:14.313Z,1.70
2023-02-26T15:17:24.213Z,1.90
2023-02-26T15:19:36.074Z,1.90
2023-02-26T15:21:43.961Z,2.37
2023-02-26T15:23:48.329Z,2.23
2023-02-26T15:25:51.080Z,1.73
2023-02-26T15:27:54.209Z,1.70
2023-02-26T15:29:56.970Z,1.50
2023-02-26T15:32:03.241Z,1.70
2023-02-26T15:34:06.054Z,1.60
2023-02-26T15:36:13.842Z,1.90
2023-02-26T15:38:16.637Z,3.30
2023-02-26T15:40:20.017Z,4.40
2023-02-26T15:42:23.586Z,3.17
2023-02-26T15:44:27.200Z,1.80
2023-02-26T15:46:31.080Z,1.90
2023-02-26T15:48:37.419Z,1.60
2023-02-26T15:50:41.799Z,1.60
2023-02-26T15:52:45.846Z,1.90
2023-02-26T15:54:49.942Z,1.73
2023-02-26T15:56:52.682Z,1.70
2023-02-26T15:58:56.958Z,2.40
2023-02-26T16:01:01.829Z,2.00
2023-02-26T16:03:04.705Z,2.30
2023-02-26T16:05:07.989Z,1.70
2023-02-26T16:07:11.102Z,2.10
2023-02-26T16:09:18.815Z,2.70
2023-02-26T16:11:21.596Z,1.77
2023-02-26T16:13:29.237Z,1.80
2023-02-26T16:15:33.552Z,1.63
2023-02-26T16:17:39.586Z,2.00
2023-02-26T16:19:43.061Z,1.80
2023-02-26T16:21:45.830Z,2.00
2023-02-26T16:23:50.817Z,1.90
2023-02-26T16:25:56.100Z,2.20
2023-02-26T16:28:00.726Z,2.10
2023-02-26T16:30:05.320Z,2.03
2023-02-26T16:32:08.211Z,1.77
2023-02-26T16:34:24.183Z,2.40
2023-02-26T16:36:28.699Z,2.00
2023-02-26T16:38:33.730Z,1.90
2023-02-26T16:40:37.525Z,1.90
2023-02-26T16:42:47.346Z,2.10
2023-02-26T16:44:52.522Z,2.00
2023-02-26T16:46:55.301Z,2.57
2023-02-26T16:49:00.919Z,2.00
2023-02-26T16:51:06.233Z,1.97
2023-02-26T16:53:10.220Z,1.97
2023-02-26T16:55:18.311Z,2.40
2023-02-26T16:57:24.027Z,2.20
2023-02-26T16:59:30.573Z,2.23
2023-02-26T17:01:35.320Z,2.07
2023-02-26T17:03:39.334Z,2.30
2023-02-26T17:05:43.424Z,2.50
2023-02-26T17:07:51.518Z,2.53
2023-02-26T17:09:57.910Z,2.20
2023-02-26T17:12:13.600Z,2.67
2023-02-26T17:14:19.793Z,2.13
2023-02-26T17:16:25.226Z,2.50
2023-02-26T17:18:28.054Z,2.50
2023-02-26T17:20:31.052Z,2.20
2023-02-26T17:22:33.813Z,2.40
2023-02-26T17:24:40.261Z,2.00
2023-02-26T17:26:43.063Z,2.13
2023-02-26T17:28:45.772Z,2.30
2023-02-26T17:30:48.616Z,2.30
2023-02-26T17:32:52.724Z,2.27
2023-02-26T17:34:55.557Z,2.50
2023-02-26T17:36:59.638Z,2.57
2023-02-26T17:39:02.332Z,2.63
2023-02-26T17:41:05.325Z,2.63
2023-02-26T17:43:09.875Z,3.10
2023-02-26T17:45:12.589Z,2.70
2023-02-26T17:47:17.108Z,2.70
2023-02-26T17:49:21.155Z,2.53
2023-02-26T17:51:24.043Z,2.17
2023-02-26T17:53:27.306Z,2.63
2023-02-26T17:55:30.022Z,2.33
2023-02-26T17:57:32.759Z,2.80
2023-02-26T17:59:35.535Z,2.10
2023-02-26T18:01:38.331Z,2.53
2023-02-26T18:03:41.529Z,2.50
2023-02-26T18:05:45.631Z,2.40
2023-02-26T18:07:48.404Z,2.70
2023-02-26T18:09:51.181Z,3.10
2023-02-26T18:11:53.931Z,2.30
2023-02-26T18:13:56.836Z,2.50
2023-02-26T18:16:01.954Z,2.73
2023-02-26T18:18:06.096Z,2.87
2023-02-26T18:20:13.151Z,2.30
2023-02-26T18:22:18.777Z,2.33
2023-02-26T18:24:21.492Z,3.40
2023-02-26T18:26:27.523Z,2.97
2023-02-26T18:28:30.319Z,2.50
2023-02-26T18:30:36.470Z,3.00
2023-02-26T18:32:39.280Z,2.30
2023-02-26T18:34:42.034Z,2.60
2023-02-26T18:36:44.772Z,2.93
2023-02-26T18:38:48.822Z,2.43
2023-02-26T18:40:52.213Z,2.40
2023-02-26T18:42:54.987Z,2.10
2023-02-26T18:44:57.699Z,2.60
2023-02-26T18:47:00.438Z,2.50
2023-02-26T18:49:03.159Z,2.67
2023-02-26T18:51:06.799Z,2.93
2023-02-26T18:53:09.562Z,2.30
2023-02-26T18:55:13.758Z,2.80
2023-02-26T18:57:17.078Z,2.40
2023-02-26T18:59:20.598Z,2.73
2023-02-26T19:01:24.524Z,2.20
2023-02-26T19:03:27.370Z,3.60
2023-02-26T19:05:30.159Z,2.80
2023-02-26T19:07:32.916Z,3.63
2023-02-26T19:09:36.020Z,3.17
2023-02-26T19:11:42.383Z,3.07
2023-02-26T19:13:45.513Z,2.80
2023-02-26T19:15:49.525Z,2.87
2023-02-26T19:17:52.444Z,2.70
2023-02-26T19:19:55.163Z,3.10
2023-02-26T19:21:58.593Z,2.97
2023-02-26T19:24:01.565Z,2.63
2023-02-26T19:26:05.430Z,2.60
2023-02-26T19:28:09.504Z,3.00
2023-02-26T19:30:13.071Z,2.70
2023-02-26T19:32:16.000Z,2.80
2023-02-26T19:34:18.837Z,3.03
2023-02-26T19:36:21.900Z,3.47
2023-02-26T19:38:24.614Z,3.13
2023-02-26T19:40:28.146Z,3.33
2023-02-26T19:42:30.906Z,3.90
2023-02-26T19:44:35.800Z,3.00
2023-02-26T19:46:38.644Z,3.63
2023-02-26T19:48:41.436Z,4.30
2023-02-26T19:50:44.172Z,4.23
2023-02-26T19:52:46.923Z,3.70
2023-02-26T19:54:49.635Z,4.60
2023-02-26T19:56:52.371Z,4.00
2023-02-26T19:58:55.073Z,4.03
2023-02-26T20:00:59.227Z,4.20
2023-02-26T20:03:01.988Z,4.73
2023-02-26T20:05:05.728Z,3.90
2023-02-26T20:07:08.511Z,4.30
2023-02-26T20:09:12.175Z,3.80
2023-02-26T20:11:14.997Z,4.07
2023-02-26T20:13:18.135Z,3.80
2023-02-26T20:15:21.149Z,3.70
2023-02-26T20:17:25.259Z,4.23
2023-02-26T20:19:27.985Z,4.47
2023-02-26T20:21:30.734Z,3.80
2023-02-26T20:23:34.603Z,3.50
2023-02-26T20:25:38.329Z,4.10
2023-02-26T20:27:41.056Z,4.10
2023-02-26T20:29:43.766Z,4.27
2023-02-26T20:31:49.367Z,4.47
2023-02-26T20:33:53.736Z,4.63
2023-02-26T20:35:56.443Z,4.70
2023-02-26T20:37:59.181Z,4.70
2023-02-26T20:40:01.902Z,5.43
2023-02-26T20:42:05.220Z,5.30
2023-02-26T20:44:07.942Z,4.70
2023-02-26T20:46:10.655Z,5.30
2023-02-26T20:48:13.397Z,5.97
2023-02-26T20:50:17.880Z,5.77
2023-02-26T20:52:20.892Z,5.80
2023-02-26T20:54:23.762Z,5.77
2023-02-26T20:56:26.485Z,4.60
2023-02-26T20:58:29.206Z,4.57
2023-02-26T21:00:32.062Z,5.50
2023-02-26T21:02:34.827Z,4.90
2023-02-26T21:04:37.561Z,4.70
2023-02-26T21:06:41.635Z,4.90
2023-02-26T21:08:45.146Z,4.67
2023-02-26T21:10:47.868Z,3.80
2023-02-26T21:12:51.686Z,3.83
2023-02-26T21:14:55.682Z,3.30
2023-02-26T21:16:58.966Z,4.33
2023-02-26T21:19:02.055Z,4.17
2023-02-26T21:21:05.078Z,4.23
2023-02-26T21:23:09.176Z,4.17
2023-02-26T21:25:12.041Z,4.27
2023-02-26T21:27:16.607Z,3.93
2023-02-26T21:29:20.465Z,3.73
2023-02-26T21:31:23.195Z,4.00
2023-02-26T21:33:25.928Z,4.80
2023-02-26T21:35:28.796Z,4.13
2023-02-26T21:37:31.582Z,4.60
2023-02-26T21:39:35.816Z,3.83
2023-02-26T21:41:38.878Z,3.20
2023-02-26T21:43:41.629Z,3.50
2023-02-26T21:45:44.427Z,3.40
2023-02-26T21:47:47.329Z,3.37
2023-02-26T21:49:50.031Z,3.50
2023-02-26T21:51:52.901Z,3.60
2023-02-26T21:53:55.886Z,3.70
2023-02-26T21:55:59.957Z,3.30
2023-02-26T21:58:03.453Z,3.97
2023-02-26T22:00:10.135Z,4.07
2023-02-26T22:02:13.058Z,3.80
2023-02-26T22:04:15.795Z,4.50
2023-02-26T22:06:18.581Z,3.53
2023-02-26T22:08:21.326Z,4.80
2023-02-26T22:10:24.032Z,3.50
2023-02-26T22:12:28.405Z,4.23
2023-02-26T22:14:31.198Z,3.57
2023-02-26T22:16:33.939Z,4.60
2023-02-26T22:18:36.723Z,3.67
2023-02-26T22:20:39.442Z,3.87
2023-02-26T22:22:42.184Z,3.93
2023-02-26T22:24:44.954Z,4.23
2023-02-26T22:26:49.278Z,4.30
2023-02-26T22:28:54.393Z,4.53
2023-02-26T22:30:57.300Z,4.30
2023-02-26T22:33:00.094Z,4.70
2023-02-26T22:35:02.821Z,5.00
2023-02-26T22:37:05.526Z,5.00
2023-02-26T22:39:08.354Z,5.20
2023-02-26T22:41:11.083Z,6.80
2023-02-26T22:43:13.896Z,6.53
2023-02-26T22:45:18.179Z,6.70
2023-02-26T22:47:20.934Z,5.97
2023-02-26T22:49:23.651Z,6.43
2023-02-26T22:51:28.176Z,4.87
2023-02-26T22:53:31.860Z,4.50
2023-02-26T22:55:34.618Z,4.70
2023-02-26T22:57:37.399Z,4.60
2023-02-26T22:59:40.111Z,5.40
2023-02-26T23:01:44.184Z,5.70
2023-02-26T23:03:46.924Z,4.67
2023-02-26T23:05:49.623Z,4.40
2023-02-26T23:07:52.339Z,4.87
2023-02-26T23:09:55.040Z,4.80
2023-02-26T23:11:57.746Z,4.43
2023-02-26T23:14:00.466Z,4.60
2023-02-26T23:16:03.424Z,4.73
2023-02-26T23:18:07.523Z,4.93
2023-02-26T23:20:13.695Z,4.57
2023-02-26T23:22:16.483Z,3.93
2023-02-26T23:24:19.250Z,4.00
2023-02-26T23:26:21.957Z,4.27
2023-02-26T23:28:25.452Z,4.70
2023-02-26T23:30:28.289Z,4.40
2023-02-26T23:32:31.093Z,5.30
2023-02-26T23:34:35.122Z,4.50
2023-02-26T23:36:38.013Z,5.10
2023-02-26T23:38:40.717Z,4.13
2023-02-26T23:40:43.449Z,4.70
2023-02-26T23:42:46.607Z,4.17
2023-02-26T23:44:49.477Z,4.93
2023-02-26T23:46:52.314Z,4.73
2023-02-26T23:48:57.396Z,5.00
2023-02-26T23:51:01.437Z,6.13
2023-02-26T23:53:04.153Z,4.83
2023-02-26T23:55:07.856Z,5.40
2023-02-26T23:57:10.628Z,5.27
2023-02-26T23:59:13.552Z,4.87
